sensor_id;sensor_type;location;lat;lon;timestamp;P1;durP1;ratioP1;P2;durP2;ratioP2
3217;SDS011;1621;49.702;8.618;2024-02-28T00:00:09;16.37;;;12.50;;
3217;SDS011;1621;49.702;8.618;2024-02-28T00:02:37;16.50;;;12.13;;
3217;SDS011;1621;49.702;8.618;2024-02-28T00:05:03;15.00;;;11.70;;
3217;SDS011;1621;49.702;8.618;2024-02-28T00:07:29;18.40;;;13.67;;
3217;SDS011;1621;49.702;8.618;2024-02-28T00:09:56;16.03;;;12.57;;
3217;SDS011;1621;49.702;8.618;2024-02-28T00:12:22;16.60;;;12.00;;
3217;SDS011;1621;49.702;8.618;2024-02-28T00:14:50;15.00;;;11.93;;
3217;SDS011;1621;49.702;8.618;2024-02-28T00:17:16;22.67;;;12.10;;
3217;SDS011;1621;49.702;8.618;2024-02-28T00:19:43;16.50;;;11.90;;
3217;SDS011;1621;49.702;8.618;2024-02-28T00:22:10;15.83;;;12.70;;
3217;SDS011;1621;49.702;8.618;2024-02-28T00:24:36;17.80;;;11.00;;
3217;SDS011;1621;49.702;8.618;2024-02-28T00:27:02;16.50;;;12.03;;
3217;SDS011;1621;49.702;8.618;2024-02-28T00:29:29;20.30;;;13.07;;
3217;SDS011;1621;49.702;8.618;2024-02-28T00:31:55;16.37;;;11.60;;
3217;SDS011;1621;49.702;8.618;2024-02-28T00:34:21;18.20;;;12.10;;
3217;SDS011;1621;49.702;8.618;2024-02-28T00:36:49;17.30;;;12.53;;
3217;SDS011;1621;49.702;8.618;2024-02-28T00:39:15;16.97;;;12.07;;
3217;SDS011;1621;49.702;8.618;2024-02-28T00:41:41;16.83;;;11.70;;
3217;SDS011;1621;49.702;8.618;2024-02-28T00:44:08;13.60;;;11.10;;
3217;SDS011;1621;49.702;8.618;2024-02-28T00:46:35;15.77;;;12.13;;
3217;SDS011;1621;49.702;8.618;2024-02-28T00:49:01;14.73;;;12.10;;
3217;SDS011;1621;49.702;8.618;2024-02-28T00:51:27;14.93;;;12.10;;
3217;SDS011;1621;49.702;8.618;2024-02-28T00:53:55;16.60;;;10.30;;
3217;SDS011;1621;49.702;8.618;2024-02-28T00:56:21;16.57;;;12.30;;
3217;SDS011;1621;49.702;8.618;2024-02-28T00:58:49;16.57;;;11.70;;
3217;SDS011;1621;49.702;8.618;2024-02-28T01:01:15;14.40;;;11.50;;
3217;SDS011;1621;49.702;8.618;2024-02-28T01:03:41;18.27;;;13.27;;
3217;SDS011;1621;49.702;8.618;2024-02-28T01:06:08;16.30;;;11.70;;
3217;SDS011;1621;49.702;8.618;2024-02-28T01:08:34;16.53;;;12.50;;
3217;SDS011;1621;49.702;8.618;2024-02-28T01:11:02;14.60;;;10.10;;
3217;SDS011;1621;49.702;8.618;2024-02-28T01:13:28;16.23;;;11.83;;
3217;SDS011;1621;49.702;8.618;2024-02-28T01:15:54;17.90;;;12.13;;
3217;SDS011;1621;49.702;8.618;2024-02-28T01:18:21;15.83;;;12.60;;
3217;SDS011;1621;49.702;8.618;2024-02-28T01:20:46;18.70;;;12.70;;
3217;SDS011;1621;49.702;8.618;2024-02-28T01:23:12;17.53;;;11.53;;
3217;SDS011;1621;49.702;8.618;2024-02-28T01:25:39;16.80;;;12.10;;
3217;SDS011;1621;49.702;8.618;2024-02-28T01:28:06;17.60;;;13.13;;
3217;SDS011;1621;49.702;8.618;2024-02-28T01:30:33;17.60;;;11.27;;
3217;SDS011;1621;49.702;8.618;2024-02-28T01:32:59;18.20;;;14.27;;
3217;SDS011;1621;49.702;8.618;2024-02-28T01:35:26;15.30;;;11.73;;
3217;SDS011;1621;49.702;8.618;2024-02-28T01:37:52;17.57;;;12.60;;
3217;SDS011;1621;49.702;8.618;2024-02-28T01:40:18;14.97;;;12.23;;
3217;SDS011;1621;49.702;8.618;2024-02-28T01:42:44;19.20;;;12.87;;
3217;SDS011;1621;49.702;8.618;2024-02-28T01:45:12;16.77;;;11.53;;
3217;SDS011;1621;49.702;8.618;2024-02-28T01:47:39;19.20;;;12.20;;
3217;SDS011;1621;49.702;8.618;2024-02-28T01:50:06;17.80;;;12.03;;
3217;SDS011;1621;49.702;8.618;2024-02-28T01:52:33;16.80;;;12.20;;
3217;SDS011;1621;49.702;8.618;2024-02-28T01:55:00;17.10;;;13.03;;
3217;SDS011;1621;49.702;8.618;2024-02-28T01:57:27;18.10;;;12.10;;
3217;SDS011;1621;49.702;8.618;2024-02-28T01:59:53;17.37;;;13.50;;
3217;SDS011;1621;49.702;8.618;2024-02-28T02:02:21;20.80;;;14.57;;
3217;SDS011;1621;49.702;8.618;2024-02-28T02:04:48;16.43;;;12.63;;
3217;SDS011;1621;49.702;8.618;2024-02-28T02:07:14;18.03;;;12.53;;
3217;SDS011;1621;49.702;8.618;2024-02-28T02:09:40;17.90;;;11.80;;
3217;SDS011;1621;49.702;8.618;2024-02-28T02:12:07;19.03;;;13.70;;
3217;SDS011;1621;49.702;8.618;2024-02-28T02:14:33;15.80;;;11.60;;
3217;SDS011;1621;49.702;8.618;2024-02-28T02:16:59;16.63;;;13.60;;
3217;SDS011;1621;49.702;8.618;2024-02-28T02:19:27;18.43;;;12.70;;
3217;SDS011;1621;49.702;8.618;2024-02-28T02:21:53;17.37;;;13.67;;
3217;SDS011;1621;49.702;8.618;2024-02-28T02:24:24;16.70;;;11.90;;
3217;SDS011;1621;49.702;8.618;2024-02-28T02:26:54;19.57;;;13.60;;
3217;SDS011;1621;49.702;8.618;2024-02-28T02:29:20;17.50;;;12.00;;
3217;SDS011;1621;49.702;8.618;2024-02-28T02:31:46;22.57;;;13.70;;
3217;SDS011;1621;49.702;8.618;2024-02-28T02:34:13;16.87;;;11.83;;
3217;SDS011;1621;49.702;8.618;2024-02-28T02:36:39;16.97;;;12.67;;
3217;SDS011;1621;49.702;8.618;2024-02-28T02:39:05;16.10;;;12.90;;
3217;SDS011;1621;49.702;8.618;2024-02-28T02:41:34;18.10;;;12.27;;
3217;SDS011;1621;49.702;8.618;2024-02-28T02:44:00;16.30;;;11.60;;
3217;SDS011;1621;49.702;8.618;2024-02-28T02:46:27;16.67;;;12.27;;
3217;SDS011;1621;49.702;8.618;2024-02-28T02:48:53;19.63;;;13.27;;
3217;SDS011;1621;49.702;8.618;2024-02-28T02:51:19;18.07;;;12.43;;
3217;SDS011;1621;49.702;8.618;2024-02-28T02:53:46;18.60;;;12.07;;
3217;SDS011;1621;49.702;8.618;2024-02-28T02:56:12;18.53;;;12.97;;
3217;SDS011;1621;49.702;8.618;2024-02-28T02:58:39;19.03;;;12.23;;
3217;SDS011;1621;49.702;8.618;2024-02-28T03:01:06;19.47;;;12.57;;
3217;SDS011;1621;49.702;8.618;2024-02-28T03:03:33;18.67;;;13.07;;
3217;SDS011;1621;49.702;8.618;2024-02-28T03:06:00;22.10;;;12.83;;
3217;SDS011;1621;49.702;8.618;2024-02-28T03:08:26;18.80;;;12.53;;
3217;SDS011;1621;49.702;8.618;2024-02-28T03:10:52;22.47;;;14.80;;
3217;SDS011;1621;49.702;8.618;2024-02-28T03:13:19;16.77;;;12.43;;
3217;SDS011;1621;49.702;8.618;2024-02-28T03:15:47;19.23;;;12.53;;
3217;SDS011;1621;49.702;8.618;2024-02-28T03:18:13;20.77;;;13.47;;
3217;SDS011;1621;49.702;8.618;2024-02-28T03:20:39;16.83;;;12.23;;
3217;SDS011;1621;49.702;8.618;2024-02-28T03:23:05;19.97;;;13.17;;
3217;SDS011;1621;49.702;8.618;2024-02-28T03:25:32;18.47;;;12.50;;
3217;SDS011;1621;49.702;8.618;2024-02-28T03:27:58;17.87;;;12.80;;
3217;SDS011;1621;49.702;8.618;2024-02-28T03:30:26;21.70;;;13.83;;
3217;SDS011;1621;49.702;8.618;2024-02-28T03:32:53;18.50;;;13.47;;
3217;SDS011;1621;49.702;8.618;2024-02-28T03:35:20;16.80;;;11.77;;
3217;SDS011;1621;49.702;8.618;2024-02-28T03:37:46;17.80;;;12.43;;
3217;SDS011;1621;49.702;8.618;2024-02-28T03:40:12;21.50;;;14.00;;
3217;SDS011;1621;49.702;8.618;2024-02-28T03:42:39;21.67;;;14.63;;
3217;SDS011;1621;49.702;8.618;2024-02-28T03:45:06;19.30;;;13.23;;
3217;SDS011;1621;49.702;8.618;2024-02-28T03:47:32;19.80;;;12.50;;
3217;SDS011;1621;49.702;8.618;2024-02-28T03:50:00;19.50;;;13.90;;
3217;SDS011;1621;49.702;8.618;2024-02-28T03:52:28;20.77;;;14.07;;
3217;SDS011;1621;49.702;8.618;2024-02-28T03:54:55;20.57;;;13.10;;
3217;SDS011;1621;49.702;8.618;2024-02-28T03:57:22;19.00;;;13.40;;
3217;SDS011;1621;49.702;8.618;2024-02-28T03:59:48;21.40;;;14.50;;
3217;SDS011;1621;49.702;8.618;2024-02-28T04:02:14;22.17;;;14.40;;
3217;SDS011;1621;49.702;8.618;2024-02-28T04:04:40;25.33;;;16.70;;
3217;SDS011;1621;49.702;8.618;2024-02-28T04:07:09;25.60;;;17.37;;
3217;SDS011;1621;49.702;8.618;2024-02-28T04:09:35;23.73;;;15.93;;
3217;SDS011;1621;49.702;8.618;2024-02-28T04:12:01;23.20;;;16.00;;
3217;SDS011;1621;49.702;8.618;2024-02-28T04:14:28;25.43;;;17.73;;
3217;SDS011;1621;49.702;8.618;2024-02-28T04:16:54;27.40;;;18.90;;
3217;SDS011;1621;49.702;8.618;2024-02-28T04:19:20;25.10;;;17.17;;
3217;SDS011;1621;49.702;8.618;2024-02-28T04:21:46;22.83;;;17.10;;
3217;SDS011;1621;49.702;8.618;2024-02-28T04:24:14;23.53;;;15.67;;
3217;SDS011;1621;49.702;8.618;2024-02-28T04:26:40;24.43;;;16.20;;
3217;SDS011;1621;49.702;8.618;2024-02-28T04:29:07;24.60;;;16.10;;
3217;SDS011;1621;49.702;8.618;2024-02-28T04:31:38;24.00;;;14.97;;
3217;SDS011;1621;49.702;8.618;2024-02-28T04:34:05;20.43;;;14.63;;
3217;SDS011;1621;49.702;8.618;2024-02-28T04:36:31;22.73;;;15.13;;
3217;SDS011;1621;49.702;8.618;2024-02-28T04:38:57;23.60;;;16.27;;
3217;SDS011;1621;49.702;8.618;2024-02-28T04:41:25;22.97;;;15.20;;
3217;SDS011;1621;49.702;8.618;2024-02-28T04:43:51;21.43;;;15.37;;
3217;SDS011;1621;49.702;8.618;2024-02-28T04:46:17;21.27;;;15.43;;
3217;SDS011;1621;49.702;8.618;2024-02-28T04:48:43;26.07;;;17.67;;
3217;SDS011;1621;49.702;8.618;2024-02-28T04:51:10;25.47;;;16.00;;
3217;SDS011;1621;49.702;8.618;2024-02-28T04:53:36;22.63;;;14.87;;
3217;SDS011;1621;49.702;8.618;2024-02-28T04:56:02;24.10;;;15.70;;
3217;SDS011;1621;49.702;8.618;2024-02-28T04:58:30;21.83;;;15.30;;
3217;SDS011;1621;49.702;8.618;2024-02-28T05:00:56;23.43;;;15.10;;
3217;SDS011;1621;49.702;8.618;2024-02-28T05:03:22;20.03;;;14.87;;
3217;SDS011;1621;49.702;8.618;2024-02-28T05:05:49;24.07;;;15.13;;
3217;SDS011;1621;49.702;8.618;2024-02-28T05:08:16;21.17;;;14.57;;
3217;SDS011;1621;49.702;8.618;2024-02-28T05:10:43;25.63;;;16.37;;
3217;SDS011;1621;49.702;8.618;2024-02-28T05:13:09;23.43;;;16.40;;
3217;SDS011;1621;49.702;8.618;2024-02-28T05:15:36;19.60;;;14.60;;
3217;SDS011;1621;49.702;8.618;2024-02-28T05:18:03;23.93;;;17.03;;
3217;SDS011;1621;49.702;8.618;2024-02-28T05:20:29;24.30;;;16.53;;
3217;SDS011;1621;49.702;8.618;2024-02-28T05:22:55;25.60;;;16.53;;
3217;SDS011;1621;49.702;8.618;2024-02-28T05:25:22;23.03;;;16.60;;
3217;SDS011;1621;49.702;8.618;2024-02-28T05:27:48;26.57;;;16.73;;
3217;SDS011;1621;49.702;8.618;2024-02-28T05:30:14;25.00;;;17.07;;
3217;SDS011;1621;49.702;8.618;2024-02-28T05:32:42;26.53;;;17.93;;
3217;SDS011;1621;49.702;8.618;2024-02-28T05:35:08;27.40;;;17.70;;
3217;SDS011;1621;49.702;8.618;2024-02-28T05:37:36;22.80;;;15.43;;
3217;SDS011;1621;49.702;8.618;2024-02-28T05:40:03;25.30;;;16.57;;
3217;SDS011;1621;49.702;8.618;2024-02-28T05:42:29;23.10;;;16.03;;
3217;SDS011;1621;49.702;8.618;2024-02-28T05:44:56;24.30;;;16.27;;
3217;SDS011;1621;49.702;8.618;2024-02-28T05:47:22;25.87;;;16.73;;
3217;SDS011;1621;49.702;8.618;2024-02-28T05:49:50;25.70;;;17.70;;
3217;SDS011;1621;49.702;8.618;2024-02-28T05:52:16;25.93;;;16.23;;
3217;SDS011;1621;49.702;8.618;2024-02-28T05:54:43;22.80;;;15.50;;
3217;SDS011;1621;49.702;8.618;2024-02-28T05:57:13;27.40;;;17.87;;
3217;SDS011;1621;49.702;8.618;2024-02-28T05:59:39;28.47;;;18.83;;
3217;SDS011;1621;49.702;8.618;2024-02-28T06:02:05;26.67;;;18.20;;
3217;SDS011;1621;49.702;8.618;2024-02-28T06:04:32;30.23;;;18.00;;
3217;SDS011;1621;49.702;8.618;2024-02-28T06:06:59;22.90;;;16.23;;
3217;SDS011;1621;49.702;8.618;2024-02-28T06:09:26;26.07;;;17.80;;
3217;SDS011;1621;49.702;8.618;2024-02-28T06:11:53;24.50;;;17.20;;
3217;SDS011;1621;49.702;8.618;2024-02-28T06:14:19;28.70;;;17.30;;
3217;SDS011;1621;49.702;8.618;2024-02-28T06:16:46;27.40;;;17.87;;
3217;SDS011;1621;49.702;8.618;2024-02-28T06:19:12;23.33;;;15.23;;
3217;SDS011;1621;49.702;8.618;2024-02-28T06:21:38;27.10;;;17.53;;
3217;SDS011;1621;49.702;8.618;2024-02-28T06:24:06;28.30;;;17.63;;
3217;SDS011;1621;49.702;8.618;2024-02-28T06:26:33;30.70;;;18.47;;
3217;SDS011;1621;49.702;8.618;2024-02-28T06:28:59;28.40;;;18.43;;
3217;SDS011;1621;49.702;8.618;2024-02-28T06:31:29;26.40;;;17.03;;
3217;SDS011;1621;49.702;8.618;2024-02-28T06:33:56;27.53;;;18.33;;
3217;SDS011;1621;49.702;8.618;2024-02-28T06:36:22;31.73;;;19.27;;
3217;SDS011;1621;49.702;8.618;2024-02-28T06:38:48;30.10;;;19.87;;
3217;SDS011;1621;49.702;8.618;2024-02-28T06:41:17;33.20;;;20.70;;
3217;SDS011;1621;49.702;8.618;2024-02-28T06:43:43;30.40;;;19.80;;
3217;SDS011;1621;49.702;8.618;2024-02-28T06:46:10;27.10;;;17.90;;
3217;SDS011;1621;49.702;8.618;2024-02-28T06:48:37;29.23;;;20.30;;
3217;SDS011;1621;49.702;8.618;2024-02-28T06:51:03;33.00;;;21.10;;
3217;SDS011;1621;49.702;8.618;2024-02-28T06:53:30;29.30;;;20.40;;
3217;SDS011;1621;49.702;8.618;2024-02-28T06:55:56;30.77;;;19.83;;
3217;SDS011;1621;49.702;8.618;2024-02-28T06:58:23;30.00;;;20.43;;
3217;SDS011;1621;49.702;8.618;2024-02-28T07:00:50;29.17;;;19.20;;
3217;SDS011;1621;49.702;8.618;2024-02-28T07:03:16;29.13;;;20.03;;
3217;SDS011;1621;49.702;8.618;2024-02-28T07:05:42;33.77;;;21.10;;
3217;SDS011;1621;49.702;8.618;2024-02-28T07:08:09;31.70;;;20.83;;
3217;SDS011;1621;49.702;8.618;2024-02-28T07:10:36;32.80;;;21.47;;
3217;SDS011;1621;49.702;8.618;2024-02-28T07:13:02;31.70;;;21.27;;
3217;SDS011;1621;49.702;8.618;2024-02-28T07:15:30;35.80;;;22.43;;
3217;SDS011;1621;49.702;8.618;2024-02-28T07:17:56;37.53;;;22.10;;
3217;SDS011;1621;49.702;8.618;2024-02-28T07:20:22;36.13;;;22.87;;
3217;SDS011;1621;49.702;8.618;2024-02-28T07:22:49;30.30;;;21.10;;
3217;SDS011;1621;49.702;8.618;2024-02-28T07:25:15;30.80;;;19.97;;
3217;SDS011;1621;49.702;8.618;2024-02-28T07:27:42;32.17;;;22.17;;
3217;SDS011;1621;49.702;8.618;2024-02-28T07:30:08;29.87;;;20.20;;
3217;SDS011;1621;49.702;8.618;2024-02-28T07:32:36;32.70;;;21.93;;
3217;SDS011;1621;49.702;8.618;2024-02-28T07:35:02;31.37;;;20.77;;
3217;SDS011;1621;49.702;8.618;2024-02-28T07:37:28;34.30;;;22.63;;
3217;SDS011;1621;49.702;8.618;2024-02-28T07:39:55;31.10;;;21.60;;
3217;SDS011;1621;49.702;8.618;2024-02-28T07:42:21;34.83;;;21.83;;
3217;SDS011;1621;49.702;8.618;2024-02-28T07:44:47;34.23;;;21.97;;
3217;SDS011;1621;49.702;8.618;2024-02-28T07:47:14;33.20;;;21.23;;
3217;SDS011;1621;49.702;8.618;2024-02-28T07:49:41;34.97;;;22.90;;
3217;SDS011;1621;49.702;8.618;2024-02-28T07:52:09;35.60;;;23.20;;
3217;SDS011;1621;49.702;8.618;2024-02-28T07:54:35;36.53;;;23.60;;
3217;SDS011;1621;49.702;8.618;2024-02-28T07:57:01;37.00;;;23.87;;
3217;SDS011;1621;49.702;8.618;2024-02-28T07:59:28;32.03;;;21.83;;
3217;SDS011;1621;49.702;8.618;2024-02-28T08:01:54;39.30;;;24.37;;
3217;SDS011;1621;49.702;8.618;2024-02-28T08:04:20;40.07;;;25.50;;
3217;SDS011;1621;49.702;8.618;2024-02-28T08:06:48;33.97;;;24.20;;
3217;SDS011;1621;49.702;8.618;2024-02-28T08:09:14;37.13;;;24.87;;
3217;SDS011;1621;49.702;8.618;2024-02-28T08:11:41;38.20;;;25.13;;
3217;SDS011;1621;49.702;8.618;2024-02-28T08:14:08;39.43;;;26.13;;
3217;SDS011;1621;49.702;8.618;2024-02-28T08:16:34;38.17;;;24.07;;
3217;SDS011;1621;49.702;8.618;2024-02-28T08:19:00;36.87;;;25.20;;
3217;SDS011;1621;49.702;8.618;2024-02-28T08:21:26;38.43;;;27.17;;
3217;SDS011;1621;49.702;8.618;2024-02-28T08:23:55;37.30;;;25.30;;
3217;SDS011;1621;49.702;8.618;2024-02-28T08:26:23;39.17;;;22.80;;
3217;SDS011;1621;49.702;8.618;2024-02-28T08:28:49;42.27;;;25.63;;
3217;SDS011;1621;49.702;8.618;2024-02-28T08:31:15;41.67;;;28.30;;
3217;SDS011;1621;49.702;8.618;2024-02-28T08:33:41;38.03;;;24.77;;
3217;SDS011;1621;49.702;8.618;2024-02-28T08:36:08;38.17;;;24.20;;
3217;SDS011;1621;49.702;8.618;2024-02-28T08:38:34;35.37;;;23.97;;
3217;SDS011;1621;49.702;8.618;2024-02-28T08:41:05;45.97;;;26.20;;
3217;SDS011;1621;49.702;8.618;2024-02-28T08:43:32;34.20;;;25.67;;
3217;SDS011;1621;49.702;8.618;2024-02-28T08:45:58;37.90;;;23.73;;
3217;SDS011;1621;49.702;8.618;2024-02-28T08:48:24;41.17;;;24.10;;
3217;SDS011;1621;49.702;8.618;2024-02-28T08:50:51;38.87;;;25.30;;
3217;SDS011;1621;49.702;8.618;2024-02-28T08:53:17;35.17;;;24.40;;
3217;SDS011;1621;49.702;8.618;2024-02-28T08:55:43;37.17;;;25.50;;
3217;SDS011;1621;49.702;8.618;2024-02-28T08:58:11;41.60;;;22.80;;
3217;SDS011;1621;49.702;8.618;2024-02-28T09:00:37;34.10;;;25.67;;
3217;SDS011;1621;49.702;8.618;2024-02-28T09:03:03;32.57;;;23.47;;
3217;SDS011;1621;49.702;8.618;2024-02-28T09:05:30;32.10;;;21.80;;
3217;SDS011;1621;49.702;8.618;2024-02-28T09:07:56;35.33;;;22.00;;
3217;SDS011;1621;49.702;8.618;2024-02-28T09:10:22;34.93;;;23.20;;
3217;SDS011;1621;49.702;8.618;2024-02-28T09:12:49;34.63;;;22.93;;
3217;SDS011;1621;49.702;8.618;2024-02-28T09:15:17;36.33;;;23.10;;
3217;SDS011;1621;49.702;8.618;2024-02-28T09:17:43;39.10;;;27.07;;
3217;SDS011;1621;49.702;8.618;2024-02-28T09:20:10;37.40;;;23.00;;
3217;SDS011;1621;49.702;8.618;2024-02-28T09:22:37;35.87;;;24.90;;
3217;SDS011;1621;49.702;8.618;2024-02-28T09:25:03;35.30;;;24.37;;
3217;SDS011;1621;49.702;8.618;2024-02-28T09:27:30;40.50;;;24.87;;
3217;SDS011;1621;49.702;8.618;2024-02-28T09:29:56;34.83;;;25.07;;
3217;SDS011;1621;49.702;8.618;2024-02-28T09:32:24;37.13;;;23.77;;
3217;SDS011;1621;49.702;8.618;2024-02-28T09:34:50;38.07;;;24.90;;
3217;SDS011;1621;49.702;8.618;2024-02-28T09:37:16;38.10;;;26.10;;
3217;SDS011;1621;49.702;8.618;2024-02-28T09:39:43;38.30;;;26.13;;
3217;SDS011;1621;49.702;8.618;2024-02-28T09:42:09;37.80;;;25.37;;
3217;SDS011;1621;49.702;8.618;2024-02-28T09:44:36;36.10;;;26.60;;
3217;SDS011;1621;49.702;8.618;2024-02-28T09:47:03;39.93;;;25.10;;
3217;SDS011;1621;49.702;8.618;2024-02-28T09:49:32;39.27;;;26.70;;
3217;SDS011;1621;49.702;8.618;2024-02-28T09:51:59;35.50;;;25.87;;
3217;SDS011;1621;49.702;8.618;2024-02-28T09:54:27;38.47;;;27.23;;
3217;SDS011;1621;49.702;8.618;2024-02-28T09:56:54;38.57;;;25.90;;
3217;SDS011;1621;49.702;8.618;2024-02-28T09:59:20;41.00;;;27.83;;
3217;SDS011;1621;49.702;8.618;2024-02-28T10:01:50;35.37;;;25.83;;
3217;SDS011;1621;49.702;8.618;2024-02-28T10:04:19;35.97;;;25.67;;
3217;SDS011;1621;49.702;8.618;2024-02-28T10:06:47;41.03;;;25.83;;
3217;SDS011;1621;49.702;8.618;2024-02-28T10:09:14;36.87;;;26.50;;
3217;SDS011;1621;49.702;8.618;2024-02-28T10:11:41;38.40;;;27.47;;
3217;SDS011;1621;49.702;8.618;2024-02-28T10:14:08;35.67;;;25.20;;
3217;SDS011;1621;49.702;8.618;2024-02-28T10:16:35;33.27;;;23.23;;
3217;SDS011;1621;49.702;8.618;2024-02-28T10:19:01;35.70;;;24.37;;
3217;SDS011;1621;49.702;8.618;2024-02-28T10:21:29;33.53;;;25.77;;
3217;SDS011;1621;49.702;8.618;2024-02-28T10:23:59;35.27;;;25.97;;
3217;SDS011;1621;49.702;8.618;2024-02-28T10:26:25;34.57;;;25.13;;
3217;SDS011;1621;49.702;8.618;2024-02-28T10:28:51;32.83;;;24.57;;
3217;SDS011;1621;49.702;8.618;2024-02-28T10:31:18;34.77;;;24.47;;
3217;SDS011;1621;49.702;8.618;2024-02-28T10:33:44;35.80;;;24.73;;
3217;SDS011;1621;49.702;8.618;2024-02-28T10:36:11;35.47;;;25.07;;
3217;SDS011;1621;49.702;8.618;2024-02-28T10:38:37;35.63;;;25.57;;
3217;SDS011;1621;49.702;8.618;2024-02-28T10:41:05;31.83;;;22.27;;
3217;SDS011;1621;49.702;8.618;2024-02-28T10:43:31;32.07;;;22.67;;
3217;SDS011;1621;49.702;8.618;2024-02-28T10:45:59;31.30;;;22.47;;
3217;SDS011;1621;49.702;8.618;2024-02-28T10:48:26;31.70;;;23.47;;
3217;SDS011;1621;49.702;8.618;2024-02-28T10:50:53;33.57;;;24.17;;
3217;SDS011;1621;49.702;8.618;2024-02-28T10:53:20;31.23;;;22.33;;
3217;SDS011;1621;49.702;8.618;2024-02-28T10:55:48;30.43;;;22.00;;
3217;SDS011;1621;49.702;8.618;2024-02-28T10:58:16;33.90;;;22.50;;
3217;SDS011;1621;49.702;8.618;2024-02-28T11:00:42;31.00;;;21.43;;
3217;SDS011;1621;49.702;8.618;2024-02-28T11:03:10;29.83;;;21.43;;
3217;SDS011;1621;49.702;8.618;2024-02-28T11:05:37;28.13;;;20.00;;
3217;SDS011;1621;49.702;8.618;2024-02-28T11:08:05;30.53;;;21.87;;
3217;SDS011;1621;49.702;8.618;2024-02-28T11:10:34;27.63;;;20.43;;
3217;SDS011;1621;49.702;8.618;2024-02-28T11:13:00;32.50;;;22.07;;
3217;SDS011;1621;49.702;8.618;2024-02-28T11:15:27;28.10;;;20.53;;
3217;SDS011;1621;49.702;8.618;2024-02-28T11:17:54;31.53;;;21.20;;
3217;SDS011;1621;49.702;8.618;2024-02-28T11:20:21;27.20;;;19.80;;
3217;SDS011;1621;49.702;8.618;2024-02-28T11:22:47;30.10;;;20.73;;
3217;SDS011;1621;49.702;8.618;2024-02-28T11:25:14;26.27;;;19.10;;
3217;SDS011;1621;49.702;8.618;2024-02-28T11:27:46;30.50;;;21.87;;
3217;SDS011;1621;49.702;8.618;2024-02-28T11:30:13;29.67;;;20.90;;
3217;SDS011;1621;49.702;8.618;2024-02-28T11:32:40;26.87;;;18.77;;
3217;SDS011;1621;49.702;8.618;2024-02-28T11:35:07;24.60;;;18.77;;
3217;SDS011;1621;49.702;8.618;2024-02-28T11:37:33;26.20;;;19.20;;
3217;SDS011;1621;49.702;8.618;2024-02-28T11:39:59;28.83;;;18.10;;
3217;SDS011;1621;49.702;8.618;2024-02-28T11:42:26;27.17;;;19.70;;
3217;SDS011;1621;49.702;8.618;2024-02-28T11:44:53;23.87;;;18.40;;
3217;SDS011;1621;49.702;8.618;2024-02-28T11:47:20;24.13;;;18.53;;
3217;SDS011;1621;49.702;8.618;2024-02-28T11:49:49;26.27;;;18.60;;
3217;SDS011;1621;49.702;8.618;2024-02-28T11:52:15;24.23;;;18.67;;
3217;SDS011;1621;49.702;8.618;2024-02-28T11:54:42;25.27;;;18.77;;
3217;SDS011;1621;49.702;8.618;2024-02-28T11:57:08;25.23;;;19.00;;
3217;SDS011;1621;49.702;8.618;2024-02-28T11:59:39;24.70;;;18.30;;
3217;SDS011;1621;49.702;8.618;2024-02-28T12:02:10;24.40;;;18.73;;
3217;SDS011;1621;49.702;8.618;2024-02-28T12:04:37;26.47;;;17.97;;
3217;SDS011;1621;49.702;8.618;2024-02-28T12:07:04;24.40;;;18.60;;
3217;SDS011;1621;49.702;8.618;2024-02-28T12:09:31;24.23;;;18.00;;
3217;SDS011;1621;49.702;8.618;2024-02-28T12:11:59;25.80;;;18.67;;
3217;SDS011;1621;49.702;8.618;2024-02-28T12:14:26;24.17;;;18.47;;
3217;SDS011;1621;49.702;8.618;2024-02-28T12:16:52;24.73;;;18.73;;
3217;SDS011;1621;49.702;8.618;2024-02-28T12:19:19;29.03;;;17.57;;
3217;SDS011;1621;49.702;8.618;2024-02-28T12:21:46;25.67;;;18.60;;
3217;SDS011;1621;49.702;8.618;2024-02-28T12:24:13;26.13;;;17.20;;
3217;SDS011;1621;49.702;8.618;2024-02-28T12:26:40;24.60;;;17.70;;
3217;SDS011;1621;49.702;8.618;2024-02-28T12:29:06;22.60;;;17.43;;
3217;SDS011;1621;49.702;8.618;2024-02-28T12:31:32;22.77;;;17.07;;
3217;SDS011;1621;49.702;8.618;2024-02-28T12:33:59;25.33;;;17.53;;
3217;SDS011;1621;49.702;8.618;2024-02-28T12:36:25;24.03;;;17.23;;
3217;SDS011;1621;49.702;8.618;2024-02-28T12:38:51;33.10;;;17.70;;
3217;SDS011;1621;49.702;8.618;2024-02-28T12:41:19;23.47;;;17.37;;
3217;SDS011;1621;49.702;8.618;2024-02-28T12:43:45;24.40;;;16.67;;
3217;SDS011;1621;49.702;8.618;2024-02-28T12:46:11;35.10;;;16.90;;
3217;SDS011;1621;49.702;8.618;2024-02-28T12:48:38;21.80;;;16.93;;
3217;SDS011;1621;49.702;8.618;2024-02-28T12:51:05;23.30;;;17.07;;
3217;SDS011;1621;49.702;8.618;2024-02-28T12:53:31;22.63;;;17.00;;
3217;SDS011;1621;49.702;8.618;2024-02-28T12:55:57;22.47;;;16.90;;
3217;SDS011;1621;49.702;8.618;2024-02-28T12:58:25;22.47;;;16.67;;
3217;SDS011;1621;49.702;8.618;2024-02-28T13:00:51;22.50;;;16.17;;
3217;SDS011;1621;49.702;8.618;2024-02-28T13:03:17;23.70;;;15.70;;
3217;SDS011;1621;49.702;8.618;2024-02-28T13:05:44;22.43;;;17.00;;
3217;SDS011;1621;49.702;8.618;2024-02-28T13:08:10;21.63;;;15.40;;
3217;SDS011;1621;49.702;8.618;2024-02-28T13:10:37;19.33;;;14.33;;
3217;SDS011;1621;49.702;8.618;2024-02-28T13:13:06;21.37;;;15.17;;
3217;SDS011;1621;49.702;8.618;2024-02-28T13:15:33;20.23;;;14.50;;
3217;SDS011;1621;49.702;8.618;2024-02-28T13:18:00;19.07;;;14.83;;
3217;SDS011;1621;49.702;8.618;2024-02-28T13:20:27;19.57;;;14.57;;
3217;SDS011;1621;49.702;8.618;2024-02-28T13:22:53;17.30;;;14.07;;
3217;SDS011;1621;49.702;8.618;2024-02-28T13:25:19;18.90;;;13.73;;
3217;SDS011;1621;49.702;8.618;2024-02-28T13:27:46;19.83;;;13.70;;
3217;SDS011;1621;49.702;8.618;2024-02-28T13:30:12;17.30;;;13.23;;
3217;SDS011;1621;49.702;8.618;2024-02-28T13:32:41;18.57;;;13.87;;
3217;SDS011;1621;49.702;8.618;2024-02-28T13:35:07;18.23;;;13.00;;
3217;SDS011;1621;49.702;8.618;2024-02-28T13:37:34;17.63;;;13.07;;
3217;SDS011;1621;49.702;8.618;2024-02-28T13:40:00;17.03;;;12.90;;
3217;SDS011;1621;49.702;8.618;2024-02-28T13:42:29;17.60;;;13.10;;
3217;SDS011;1621;49.702;8.618;2024-02-28T13:44:56;16.20;;;12.30;;
3217;SDS011;1621;49.702;8.618;2024-02-28T13:47:22;20.33;;;13.60;;
3217;SDS011;1621;49.702;8.618;2024-02-28T13:49:50;18.37;;;12.27;;
3217;SDS011;1621;49.702;8.618;2024-02-28T13:52:16;17.70;;;13.30;;
3217;SDS011;1621;49.702;8.618;2024-02-28T13:54:42;20.13;;;13.70;;
3217;SDS011;1621;49.702;8.618;2024-02-28T13:57:10;18.40;;;12.23;;
3217;SDS011;1621;49.702;8.618;2024-02-28T13:59:36;27.93;;;12.93;;
3217;SDS011;1621;49.702;8.618;2024-02-28T14:02:02;16.70;;;12.37;;
3217;SDS011;1621;49.702;8.618;2024-02-28T14:04:29;15.33;;;12.10;;
3217;SDS011;1621;49.702;8.618;2024-02-28T14:06:56;16.60;;;12.40;;
3217;SDS011;1621;49.702;8.618;2024-02-28T14:09:22;16.50;;;12.37;;
3217;SDS011;1621;49.702;8.618;2024-02-28T14:11:49;15.93;;;11.80;;
3217;SDS011;1621;49.702;8.618;2024-02-28T14:14:15;15.47;;;11.40;;
3217;SDS011;1621;49.702;8.618;2024-02-28T14:16:42;16.77;;;12.37;;
3217;SDS011;1621;49.702;8.618;2024-02-28T14:19:08;14.87;;;11.90;;
3217;SDS011;1621;49.702;8.618;2024-02-28T14:21:34;16.97;;;13.07;;
3217;SDS011;1621;49.702;8.618;2024-02-28T14:24:02;16.90;;;12.57;;
3217;SDS011;1621;49.702;8.618;2024-02-28T14:26:29;15.93;;;11.37;;
3217;SDS011;1621;49.702;8.618;2024-02-28T14:28:55;15.57;;;12.07;;
3217;SDS011;1621;49.702;8.618;2024-02-28T14:31:22;16.20;;;10.80;;
3217;SDS011;1621;49.702;8.618;2024-02-28T14:33:48;16.40;;;11.53;;
3217;SDS011;1621;49.702;8.618;2024-02-28T14:36:14;16.23;;;11.87;;
3217;SDS011;1621;49.702;8.618;2024-02-28T14:38:40;17.33;;;11.90;;
3217;SDS011;1621;49.702;8.618;2024-02-28T14:41:08;16.83;;;11.90;;
3217;SDS011;1621;49.702;8.618;2024-02-28T14:43:35;18.57;;;11.83;;